sensor_id;sensor_type;location;lat;lon;timestamp;pressure;altitude;pressure_sealevel;temperature;humidity
41202;BME280;26936;50.524;8.684;2023-07-29T00:00:13;98731.88;;;17.60;100.00
41202;BME280;26936;50.524;8.684;2023-07-29T00:02:42;98740.38;;;17.49;100.00
41202;BME280;26936;50.524;8.684;2023-07-29T00:05:13;98743.50;;;17.45;100.00
41202;BME280;26936;50.524;8.684;2023-07-29T00:07:39;98750.19;;;17.42;100.00
41202;BME280;26936;50.524;8.684;2023-07-29T00:10:10;98737.22;;;17.36;100.00
41202;BME280;26936;50.524;8.684;2023-07-29T00:12:42;98742.72;;;17.45;100.00
41202;BME280;26936;50.524;8.684;2023-07-29T00:15:17;98745.59;;;17.56;100.00
41202;BME280;26936;50.524;8.684;2023-07-29T00:17:48;98746.38;;;17.62;100.00
41202;BME280;26936;50.524;8.684;2023-07-29T00:20:19;98733.44;;;17.61;100.00
41202;BME280;26936;50.524;8.684;2023-07-29T00:22:53;98729.28;;;17.56;100.00
41202;BME280;26936;50.524;8.684;2023-07-29T00:25:21;98741.47;;;17.68;100.00
41202;BME280;26936;50.524;8.684;2023-07-29T00:27:54;98719.22;;;17.67;100.00
41202;BME280;26936;50.524;8.684;2023-07-29T00:30:22;98721.78;;;17.65;100.00
41202;BME280;26936;50.524;8.684;2023-07-29T00:33:01;98722.31;;;17.74;100.00
41202;BME280;26936;50.524;8.684;2023-07-29T00:35:50;98707.81;;;17.72;100.00
41202;BME280;26936;50.524;8.684;2023-07-29T00:38:25;98711.19;;;17.76;100.00
41202;BME280;26936;50.524;8.684;2023-07-29T00:40:58;98709.59;;;17.75;100.00
41202;BME280;26936;50.524;8.684;2023-07-29T00:43:45;98717.41;;;17.91;100.00
41202;BME280;26936;50.524;8.684;2023-07-29T00:46:34;98713.53;;;17.83;100.00
41202;BME280;26936;50.524;8.684;2023-07-29T00:52:36;98709.59;;;17.75;100.00
41202;BME280;26936;50.524;8.684;2023-07-29T00:55:05;98691.25;;;17.76;100.00
41202;BME280;26936;50.524;8.684;2023-07-29T00:57:37;98693.56;;;17.89;100.00
41202;BME280;26936;50.524;8.684;2023-07-29T01:00:08;98702.88;;;17.84;100.00
41202;BME280;26936;50.524;8.684;2023-07-29T01:02:42;98706.50;;;17.84;100.00
41202;BME280;26936;50.524;8.684;2023-07-29T01:05:12;98700.56;;;17.82;100.00
41202;BME280;26936;50.524;8.684;2023-07-29T01:10:54;98695.38;;;17.92;100.00
41202;BME280;26936;50.524;8.684;2023-07-29T01:13:53;98675.97;;;17.85;100.00
41202;BME280;26936;50.524;8.684;2023-07-29T01:16:40;98690.47;;;17.81;100.00
41202;BME280;26936;50.524;8.684;2023-07-29T01:19:30;98687.09;;;17.99;100.00
41202;BME280;26936;50.524;8.684;2023-07-29T01:22:04;98688.88;;;17.97;100.00
41202;BME280;26936;50.524;8.684;2023-07-29T01:24:30;98672.06;;;17.93;100.00
41202;BME280;26936;50.524;8.684;2023-07-29T01:27:02;98672.06;;;17.99;100.00
41202;BME280;26936;50.524;8.684;2023-07-29T01:29:31;98664.53;;;18.01;100.00
41202;BME280;26936;50.524;8.684;2023-07-29T01:32:02;98664.81;;;17.87;100.00
41202;BME280;26936;50.524;8.684;2023-07-29T01:34:36;98678.00;;;17.95;100.00
41202;BME280;26936;50.524;8.684;2023-07-29T01:37:15;98661.97;;;17.92;100.00
41202;BME280;26936;50.524;8.684;2023-07-29T01:39:49;98658.09;;;17.90;100.00
41202;BME280;26936;50.524;8.684;2023-07-29T01:42:18;98659.88;;;17.82;100.00
41202;BME280;26936;50.524;8.684;2023-07-29T01:47:20;98659.38;;;17.89;100.00
41202;BME280;26936;50.524;8.684;2023-07-29T01:49:45;98667.41;;;17.90;100.00
41202;BME280;26936;50.524;8.684;2023-07-29T01:52:12;98659.63;;;17.85;100.00
41202;BME280;26936;50.524;8.684;2023-07-29T01:54:38;98664.56;;;17.90;100.00
41202;BME280;26936;50.524;8.684;2023-07-29T01:57:05;98654.44;;;17.95;100.00
41202;BME280;26936;50.524;8.684;2023-07-29T01:59:34;98651.09;;;17.91;100.00
41202;BME280;26936;50.524;8.684;2023-07-29T02:02:01;98644.63;;;17.85;100.00
41202;BME280;26936;50.524;8.684;2023-07-29T02:04:31;98645.41;;;17.91;100.00
41202;BME280;26936;50.524;8.684;2023-07-29T02:07:01;98638.66;;;17.88;100.00
41202;BME280;26936;50.524;8.684;2023-07-29T02:09:31;98638.41;;;17.86;100.00
41202;BME280;26936;50.524;8.684;2023-07-29T02:12:01;98636.31;;;17.87;100.00
41202;BME280;26936;50.524;8.684;2023-07-29T02:14:30;98637.34;;;18.00;100.00
41202;BME280;26936;50.524;8.684;2023-07-29T02:17:01;98623.66;;;17.88;100.00
41202;BME280;26936;50.524;8.684;2023-07-29T02:19:30;98632.72;;;17.86;100.00
41202;BME280;26936;50.524;8.684;2023-07-29T02:21:56;98628.31;;;17.80;100.00
41202;BME280;26936;50.524;8.684;2023-07-29T02:24:24;98632.19;;;17.82;100.00
41202;BME280;26936;50.524;8.684;2023-07-29T02:26:51;98642.53;;;17.85;100.00
41202;BME280;26936;50.524;8.684;2023-07-29T02:29:24;98629.59;;;17.84;100.00
41202;BME280;26936;50.524;8.684;2023-07-29T02:31:59;98631.44;;;17.76;100.00
41202;BME280;26936;50.524;8.684;2023-07-29T02:34:30;98633.53;;;17.70;100.00
41202;BME280;26936;50.524;8.684;2023-07-29T02:36:57;98626.22;;;17.80;100.00
41202;BME280;26936;50.524;8.684;2023-07-29T02:39:31;98632.19;;;17.82;100.00
41202;BME280;26936;50.524;8.684;2023-07-29T02:42:02;98634.78;;;17.86;100.00
41202;BME280;26936;50.524;8.684;2023-07-29T02:44:31;98632.19;;;17.82;100.00
41202;BME280;26936;50.524;8.684;2023-07-29T02:46:59;98633.50;;;17.81;100.00
41202;BME280;26936;50.524;8.684;2023-07-29T02:49:36;98631.94;;;17.86;100.00
41202;BME280;26936;50.524;8.684;2023-07-29T02:52:04;98630.66;;;17.81;100.00
41202;BME280;26936;50.524;8.684;2023-07-29T02:54:40;98627.03;;;17.86;100.00
41202;BME280;26936;50.524;8.684;2023-07-29T02:57:06;98619.50;;;17.89;100.00
41202;BME280;26936;50.524;8.684;2023-07-29T02:59:35;98623.16;;;17.78;100.00
41202;BME280;26936;50.524;8.684;2023-07-29T03:02:03;98618.22;;;17.79;100.00
41202;BME280;26936;50.524;8.684;2023-07-29T03:04:29;98614.84;;;17.80;100.00
41202;BME280;26936;50.524;8.684;2023-07-29T03:06:58;98617.94;;;17.82;100.00
41202;BME280;26936;50.524;8.684;2023-07-29T03:09:30;98617.69;;;17.86;100.00
41202;BME280;26936;50.524;8.684;2023-07-29T03:12:01;98615.63;;;17.81;100.00
41202;BME280;26936;50.524;8.684;2023-07-29T03:14:28;98599.59;;;17.72;100.00
41202;BME280;26936;50.524;8.684;2023-07-29T03:16:53;98595.69;;;17.75;100.00
41202;BME280;26936;50.524;8.684;2023-07-29T03:19:23;98602.41;;;17.89;100.00
41202;BME280;26936;50.524;8.684;2023-07-29T03:21:55;98588.72;;;17.76;100.00
41202;BME280;26936;50.524;8.684;2023-07-29T03:24:23;98583.50;;;17.86;100.00
41202;BME280;26936;50.524;8.684;2023-07-29T03:26:59;98587.16;;;17.81;100.00
41202;BME280;26936;50.524;8.684;2023-07-29T03:29:27;98575.53;;;17.62;100.00
41202;BME280;26936;50.524;8.684;2023-07-29T03:31:56;98584.31;;;17.75;100.00
41202;BME280;26936;50.524;8.684;2023-07-29T03:34:33;98579.38;;;17.76;100.00
41202;BME280;26936;50.524;8.684;2023-07-29T03:37:03;98576.00;;;17.77;100.00
41202;BME280;26936;50.524;8.684;2023-07-29T03:39:30;98565.41;;;17.72;100.00
41202;BME280;26936;50.524;8.684;2023-07-29T03:41:58;98551.69;;;17.76;100.00
41202;BME280;26936;50.524;8.684;2023-07-29T03:44:26;98570.34;;;17.72;100.00
41202;BME280;26936;50.524;8.684;2023-07-29T03:47:24;98568.03;;;17.65;100.00
41202;BME280;26936;50.524;8.684;2023-07-29T03:49:51;98574.50;;;17.65;100.00
41202;BME280;26936;50.524;8.684;2023-07-29T03:52:22;98584.59;;;17.66;100.00
41202;BME280;26936;50.524;8.684;2023-07-29T03:54:55;98581.75;;;17.66;100.00
41202;BME280;26936;50.524;8.684;2023-07-29T03:57:24;98576.81;;;17.78;100.00
41202;BME280;26936;50.524;8.684;2023-07-29T03:59:49;98590.00;;;17.86;100.00
41202;BME280;26936;50.524;8.684;2023-07-29T04:02:18;98575.75;;;17.75;100.00
41202;BME280;26936;50.524;8.684;2023-07-29T04:04:45;98573.69;;;17.76;100.00
41202;BME280;26936;50.524;8.684;2023-07-29T04:07:13;98576.81;;;17.78;100.00
41202;BME280;26936;50.524;8.684;2023-07-29T04:09:41;98569.28;;;17.80;100.00
41202;BME280;26936;50.524;8.684;2023-07-29T04:12:12;98569.28;;;17.86;100.00
41202;BME280;26936;50.524;8.684;2023-07-29T04:14:44;98578.84;;;17.88;100.00
41202;BME280;26936;50.524;8.684;2023-07-29T04:17:15;98573.66;;;17.92;100.00
41202;BME280;26936;50.524;8.684;2023-07-29T04:19:44;98583.72;;;17.99;100.00
41202;BME280;26936;50.524;8.684;2023-07-29T04:22:10;98592.53;;;18.01;100.00
41202;BME280;26936;50.524;8.684;2023-07-29T04:24:37;98597.47;;;18.00;100.00
41202;BME280;26936;50.524;8.684;2023-07-29T04:27:04;98587.91;;;17.98;100.00
41202;BME280;26936;50.524;8.684;2023-07-29T04:29:36;98607.31;;;17.99;100.00
41202;BME280;26936;50.524;8.684;2023-07-29T04:32:06;98605.00;;;17.92;100.00
41202;BME280;26936;50.524;8.684;2023-07-29T04:34:33;98592.03;;;18.02;100.00
41202;BME280;26936;50.524;8.684;2023-07-29T04:36:59;98595.09;;;18.10;100.00
41202;BME280;26936;50.524;8.684;2023-07-29T04:39:31;98591.72;;;18.17;100.00
41202;BME280;26936;50.524;8.684;2023-07-29T04:41:58;98588.06;;;18.22;100.00
41202;BME280;26936;50.524;8.684;2023-07-29T04:44:27;98580.03;;;18.20;100.00
41202;BME280;26936;50.524;8.684;2023-07-29T04:46:53;98575.63;;;18.19;100.00
41202;BME280;26936;50.524;8.684;2023-07-29T04:49:20;98568.91;;;18.17;100.00
41202;BME280;26936;50.524;8.684;2023-07-29T04:51:48;98559.09;;;18.12;100.00
41202;BME280;26936;50.524;8.684;2023-07-29T04:54:18;98569.13;;;18.24;100.00
41202;BME280;26936;50.524;8.684;2023-07-29T04:56:47;98567.59;;;18.23;100.00
41202;BME280;26936;50.524;8.684;2023-07-29T04:59:15;98553.59;;;18.25;100.00
41202;BME280;26936;50.524;8.684;2023-07-29T05:01:41;98560.06;;;18.26;100.00
41202;BME280;26936;50.524;8.684;2023-07-29T05:04:08;98567.28;;;18.32;100.00
41202;BME280;26936;50.524;8.684;2023-07-29T05:06:34;98568.06;;;18.33;100.00
41202;BME280;26936;50.524;8.684;2023-07-29T05:09:15;98557.72;;;18.30;100.00
41202;BME280;26936;50.524;8.684;2023-07-29T05:11:42;98555.13;;;18.32;100.00
41202;BME280;26936;50.524;8.684;2023-07-29T05:14:15;98556.66;;;18.33;100.00
41202;BME280;26936;50.524;8.684;2023-07-29T05:16:46;98574.00;;;18.46;100.00
41202;BME280;26936;50.524;8.684;2023-07-29T05:19:17;98561.28;;;18.47;100.00
41202;BME280;26936;50.524;8.684;2023-07-29T05:21:43;98565.91;;;18.55;100.00
41202;BME280;26936;50.524;8.684;2023-07-29T05:24:17;98562.78;;;18.53;100.00
41202;BME280;26936;50.524;8.684;2023-07-29T05:26:45;98556.28;;;18.64;100.00
41202;BME280;26936;50.524;8.684;2023-07-29T05:29:14;98566.31;;;18.76;100.00
41202;BME280;26936;50.524;8.684;2023-07-29T05:31:40;98572.25;;;18.78;100.00
41202;BME280;26936;50.524;8.684;2023-07-29T05:34:06;98572.22;;;18.83;100.00
41202;BME280;26936;50.524;8.684;2023-07-29T05:36:33;98578.88;;;18.97;100.00
41202;BME280;26936;50.524;8.684;2023-07-29T05:39:02;98582.03;;;18.93;100.00
41202;BME280;26936;50.524;8.684;2023-07-29T05:41:27;98576.56;;;18.96;100.00
41202;BME280;26936;50.524;8.684;2023-07-29T05:43:54;98591.84;;;18.98;100.00
41202;BME280;26936;50.524;8.684;2023-07-29T05:46:19;98581.38;;;19.12;100.00
41202;BME280;26936;50.524;8.684;2023-07-29T05:48:44;98591.97;;;19.17;100.00
41202;BME280;26936;50.524;8.684;2023-07-29T05:51:10;98590.31;;;19.32;100.00
41202;BME280;26936;50.524;8.684;2023-07-29T05:53:35;98586.53;;;19.48;100.00
41202;BME280;26936;50.524;8.684;2023-07-29T05:56:00;98580.81;;;19.48;100.00
41202;BME280;26936;50.524;8.684;2023-07-29T05:58:26;98591.72;;;19.50;100.00
41202;BME280;26936;50.524;8.684;2023-07-29T06:00:51;98589.16;;;19.46;100.00
41202;BME280;26936;50.524;8.684;2023-07-29T06:03:16;98594.56;;;19.50;100.00
41202;BME280;26936;50.524;8.684;2023-07-29T06:05:42;98591.81;;;19.39;100.00
41202;BME280;26936;50.524;8.684;2023-07-29T06:08:07;98607.88;;;19.42;100.00
41202;BME280;26936;50.524;8.684;2023-07-29T06:10:33;98616.22;;;19.40;100.00
41202;BME280;26936;50.524;8.684;2023-07-29T06:12:59;98619.91;;;19.35;100.00
41202;BME280;26936;50.524;8.684;2023-07-29T06:15:24;98619.56;;;19.44;100.00
41202;BME280;26936;50.524;8.684;2023-07-29T06:17:50;98629.97;;;19.41;100.00
41202;BME280;26936;50.524;8.684;2023-07-29T06:20:15;98622.75;;;19.35;100.00
41202;BME280;26936;50.524;8.684;2023-07-29T06:22:41;98608.22;;;19.33;100.00
41202;BME280;26936;50.524;8.684;2023-07-29T06:25:08;98615.50;;;19.28;100.00
41202;BME280;26936;50.524;8.684;2023-07-29T06:27:34;98619.56;;;19.44;100.00
41202;BME280;26936;50.524;8.684;2023-07-29T06:29:59;98620.91;;;19.37;100.00
41202;BME280;26936;50.524;8.684;2023-07-29T06:32:25;98632.19;;;19.54;100.00
41202;BME280;26936;50.524;8.684;2023-07-29T06:34:51;98625.16;;;19.55;100.00
41202;BME280;26936;50.524;8.684;2023-07-29T06:37:17;98629.06;;;19.57;100.00
41202;BME280;26936;50.524;8.684;2023-07-29T06:39:42;98631.09;;;19.62;100.00
41202;BME280;26936;50.524;8.684;2023-07-29T06:42:07;98628.44;;;19.64;100.00
41202;BME280;26936;50.524;8.684;2023-07-29T06:44:33;98628.44;;;19.64;100.00
41202;BME280;26936;50.524;8.684;2023-07-29T06:46:58;98619.69;;;19.57;100.00
41202;BME280;26936;50.524;8.684;2023-07-29T06:49:23;98600.00;;;19.53;100.00
41202;BME280;26936;50.524;8.684;2023-07-29T06:51:49;98607.16;;;19.65;100.00
41202;BME280;26936;50.524;8.684;2023-07-29T06:54:16;98580.25;;;19.55;100.00
41202;BME280;26936;50.524;8.684;2023-07-29T06:56:41;98584.59;;;19.62;100.00
41202;BME280;26936;50.524;8.684;2023-07-29T06:59:07;98590.34;;;19.56;100.00
41202;BME280;26936;50.524;8.684;2023-07-29T07:01:32;98591.91;;;19.57;100.00
41202;BME280;26936;50.524;8.684;2023-07-29T07:03:57;98599.16;;;19.58;100.00
41202;BME280;26936;50.524;8.684;2023-07-29T07:06:23;98616.59;;;19.55;100.00
41202;BME280;26936;50.524;8.684;2023-07-29T07:08:50;98618.88;;;19.62;100.00
41202;BME280;26936;50.524;8.684;2023-07-29T07:11:15;98630.44;;;19.45;100.00
41202;BME280;26936;50.524;8.684;2023-07-29T07:13:41;98627.47;;;19.56;100.00
41202;BME280;26936;50.524;8.684;2023-07-29T07:16:06;98617.63;;;19.57;100.00
41202;BME280;26936;50.524;8.684;2023-07-29T07:18:31;98636.38;;;19.53;100.00
41202;BME280;26936;50.524;8.684;2023-07-29T07:20:56;98641.81;;;19.51;100.00
41202;BME280;26936;50.524;8.684;2023-07-29T07:23:22;98638.53;;;19.41;100.00
41202;BME280;26936;50.524;8.684;2023-07-29T07:25:47;98641.06;;;19.45;100.00
41202;BME280;26936;50.524;8.684;2023-07-29T07:28:12;98633.03;;;19.43;100.00
41202;BME280;26936;50.524;8.684;2023-07-29T07:30:41;98653.03;;;19.43;100.00
41202;BME280;26936;50.524;8.684;2023-07-29T07:33:06;98634.41;;;19.37;100.00
41202;BME280;26936;50.524;8.684;2023-07-29T07:35:32;98639.00;;;19.45;100.00
41202;BME280;26936;50.524;8.684;2023-07-29T07:37:57;98643.38;;;19.52;100.00
41202;BME280;26936;50.524;8.684;2023-07-29T07:40:27;98654.22;;;19.59;100.00
41202;BME280;26936;50.524;8.684;2023-07-29T07:42:52;98650.63;;;19.82;100.00
41202;BME280;26936;50.524;8.684;2023-07-29T07:45:17;98646.47;;;19.83;100.00
41202;BME280;26936;50.524;8.684;2023-07-29T07:47:43;98644.47;;;20.02;100.00
41202;BME280;26936;50.524;8.684;2023-07-29T07:50:08;98651.47;;;20.31;100.00
41202;BME280;26936;50.524;8.684;2023-07-29T07:52:34;98654.69;;;20.22;100.00
41202;BME280;26936;50.524;8.684;2023-07-29T07:54:59;98646.28;;;20.30;100.00
41202;BME280;26936;50.524;8.684;2023-07-29T07:57:24;98662.53;;;20.40;100.00
41202;BME280;26936;50.524;8.684;2023-07-29T07:59:50;98652.06;;;20.48;100.00
41202;BME280;26936;50.524;8.684;2023-07-29T08:02:17;98670.00;;;20.67;100.00
41202;BME280;26936;50.524;8.684;2023-07-29T08:04:43;98668.19;;;20.70;100.00
41202;BME280;26936;50.524;8.684;2023-07-29T08:07:08;98677.53;;;20.46;100.00
41202;BME280;26936;50.524;8.684;2023-07-29T08:09:33;98673.84;;;20.51;100.00
41202;BME280;26936;50.524;8.684;2023-07-29T08:11:58;98660.56;;;20.30;100.00
41202;BME280;26936;50.524;8.684;2023-07-29T08:14:24;98662.25;;;20.44;100.00
41202;BME280;26936;50.524;8.684;2023-07-29T08:16:49;98666.47;;;20.61;100.00
41202;BME280;26936;50.524;8.684;2023-07-29T08:19:15;98679.03;;;20.77;100.00
41202;BME280;26936;50.524;8.684;2023-07-29T08:21:40;98678.47;;;20.78;100.00
41202;BME280;26936;50.524;8.684;2023-07-29T08:24:05;98677.00;;;20.72;100.00
41202;BME280;26936;50.524;8.684;2023-07-29T08:26:32;98673.06;;;20.75;100.00
41202;BME280;26936;50.524;8.684;2023-07-29T08:29:00;98662.41;;;20.75;100.00
41202;BME280;26936;50.524;8.684;2023-07-29T08:31:29;98653.97;;;20.83;100.00
41202;BME280;26936;50.524;8.684;2023-07-29T08:33:55;98661.69;;;20.88;100.00
41202;BME280;26936;50.524;8.684;2023-07-29T08:36:21;98652.63;;;20.84;100.00
41202;BME280;26936;50.524;8.684;2023-07-29T08:38:46;98645.53;;;20.90;100.00
41202;BME280;26936;50.524;8.684;2023-07-29T08:41:16;98640.69;;;21.04;100.00
41202;BME280;26936;50.524;8.684;2023-07-29T08:44:09;98652.50;;;20.95;100.00
41202;BME280;26936;50.524;8.684;2023-07-29T08:46:35;98655.03;;;20.80;100.00
41202;BME280;26936;50.524;8.684;2023-07-29T08:49:01;98666.00;;;20.76;100.00
41202;BME280;26936;50.524;8.684;2023-07-29T08:51:27;98665.66;;;20.85;100.00
41202;BME280;26936;50.524;8.684;2023-07-29T08:53:53;98661.63;;;20.93;100.00
41202;BME280;26936;50.524;8.684;2023-07-29T08:56:19;98665.38;;;21.25;100.00
41202;BME280;26936;50.524;8.684;2023-07-29T08:58:45;98664.09;;;21.58;100.00
41202;BME280;26936;50.524;8.684;2023-07-29T09:01:10;98662.81;;;21.72;100.00
41202;BME280;26936;50.524;8.684;2023-07-29T09:03:37;98679.09;;;21.64;100.00
41202;BME280;26936;50.524;8.684;2023-07-29T09:06:02;98670.00;;;21.79;100.00
41202;BME280;26936;50.524;8.684;2023-07-29T09:08:28;98675.13;;;21.86;100.00
41202;BME280;26936;50.524;8.684;2023-07-29T09:10:54;98671.03;;;21.81;100.00
41202;BME280;26936;50.524;8.684;2023-07-29T09:13:20;98660.25;;;21.69;100.00
41202;BME280;26936;50.524;8.684;2023-07-29T09:15:46;98661.56;;;21.86;98.96
41202;BME280;26936;50.524;8.684;2023-07-29T09:18:15;98663.13;;;22.00;99.47
41202;BME280;26936;50.524;8.684;2023-07-29T09:20:41;98659.81;;;21.96;99.02
41202;BME280;26936;50.524;8.684;2023-07-29T09:23:10;98660.50;;;22.02;96.11
41202;BME280;26936;50.524;8.684;2023-07-29T09:25:35;98655.72;;;21.92;97.30
41202;BME280;26936;50.524;8.684;2023-07-29T09:28:08;98650.88;;;22.00;98.64
41202;BME280;26936;50.524;8.684;2023-07-29T09:30:34;98646.84;;;22.34;97.51
41202;BME280;26936;50.524;8.684;2023-07-29T09:32:59;98664.28;;;22.49;95.81
41202;BME280;26936;50.524;8.684;2023-07-29T09:35:30;98647.06;;;22.36;92.64
41202;BME280;26936;50.524;8.684;2023-07-29T09:37:57;98643.44;;;22.36;96.84
41202;BME280;26936;50.524;8.684;2023-07-29T09:40:22;98642.66;;;22.61;93.92
41202;BME280;26936;50.524;8.684;2023-07-29T09:42:52;98650.59;;;22.42;90.08
41202;BME280;26936;50.524;8.684;2023-07-29T09:45:25;98644.44;;;22.77;87.10
41202;BME280;26936;50.524;8.684;2023-07-29T09:47:51;98640.63;;;22.96;86.96
41202;BME280;26936;50.524;8.684;2023-07-29T09:50:16;98640.22;;;23.25;85.87
41202;BME280;26936;50.524;8.684;2023-07-29T09:52:43;98641.97;;;23.41;82.99
41202;BME280;26936;50.524;8.684;2023-07-29T09:55:12;98646.66;;;23.31;85.12
41202;BME280;26936;50.524;8.684;2023-07-29T09:57:39;98647.75;;;23.28;82.12
41202;BME280;26936;50.524;8.684;2023-07-29T10:00:05;98639.06;;;23.75;82.92
41202;BME280;26936;50.524;8.684;2023-07-29T10:02:39;98634.44;;;23.72;79.93
41202;BME280;26936;50.524;8.684;2023-07-29T10:05:06;98635.34;;;24.08;78.86
41202;BME280;26936;50.524;8.684;2023-07-29T10:07:31;98631.59;;;24.21;76.62
41202;BME280;26936;50.524;8.684;2023-07-29T10:09:58;98635.72;;;24.04;78.28
41202;BME280;26936;50.524;8.684;2023-07-29T10:12:25;98642.41;;;23.86;75.80
41202;BME280;26936;50.524;8.684;2023-07-29T10:14:50;98630.22;;;23.73;76.80
41202;BME280;26936;50.524;8.684;2023-07-29T10:17:16;98631.19;;;23.55;77.87
41202;BME280;26936;50.524;8.684;2023-07-29T10:19:41;98622.41;;;23.81;78.48
41202;BME280;26936;50.524;8.684;2023-07-29T10:22:08;98625.56;;;23.90;78.82
41202;BME280;26936;50.524;8.684;2023-07-29T10:24:37;98620.69;;;24.27;78.70
41202;BME280;26936;50.524;8.684;2023-07-29T10:27:06;98615.94;;;24.29;76.81
41202;BME280;26936;50.524;8.684;2023-07-29T10:29:32;98608.13;;;23.88;77.86
41202;BME280;26936;50.524;8.684;2023-07-29T10:32:02;98600.75;;;24.57;79.12
41202;BME280;26936;50.524;8.684;2023-07-29T10:34:31;98600.63;;;25.13;77.97
41202;BME280;26936;50.524;8.684;2023-07-29T10:36:57;98612.16;;;25.13;76.17
41202;BME280;26936;50.524;8.684;2023-07-29T10:39:25;98604.94;;;24.48;75.49
41202;BME280;26936;50.524;8.684;2023-07-29T10:41:55;98608.06;;;24.01;76.38
41202;BME280;26936;50.524;8.684;2023-07-29T10:47:12;98602.38;;;23.68;78.55
41202;BME280;26936;50.524;8.684;2023-07-29T10:49:45;98598.88;;;23.62;81.91
41202;BME280;26936;50.524;8.684;2023-07-29T10:52:13;98598.88;;;23.62;79.74
41202;BME280;26936;50.524;8.684;2023-07-29T10:54:44;98598.94;;;23.49;79.32
41202;BME280;26936;50.524;8.684;2023-07-29T10:57:17;98609.44;;;23.13;81.08
41202;BME280;26936;50.524;8.684;2023-07-29T10:59:55;98620.38;;;22.80;84.47
41202;BME280;26936;50.524;8.684;2023-07-29T11:02:28;98638.69;;;22.51;87.10
41202;BME280;26936;50.524;8.684;2023-07-29T11:04:54;98661.75;;;22.33;85.25
41202;BME280;26936;50.524;8.684;2023-07-29T11:07:20;98678.59;;;21.10;79.89
41202;BME280;26936;50.524;8.684;2023-07-29T11:09:53;98700.03;;;20.37;79.88
41202;BME280;26936;50.524;8.684;2023-07-29T11:12:43;98702.69;;;19.70;82.45
41202;BME280;26936;50.524;8.684;2023-07-29T11:17:45;98706.31;;;18.78;91.08
41202;BME280;26936;50.524;8.684;2023-07-29T11:20:11;98715.44;;;18.65;96.65
41202;BME280;26936;50.524;8.684;2023-07-29T11:22:37;98708.25;;;18.26;100.00
41202;BME280;26936;50.524;8.684;2023-07-29T11:25:03;98717.91;;;17.79;100.00
41202;BME280;26936;50.524;8.684;2023-07-29T11:27:30;98708.59;;;17.62;100.00
41202;BME280;26936;50.524;8.684;2023-07-29T11:30:01;98715.31;;;17.64;100.00
41202;BME280;26936;50.524;8.684;2023-07-29T11:32:27;98692.00;;;17.66;100.00
41202;BME280;26936;50.524;8.684;2023-07-29T11:34:52;98702.63;;;17.93;100.00
41202;BME280;26936;50.524;8.684;2023-07-29T11:37:17;98697.41;;;18.08;100.00
41202;BME280;26936;50.524;8.684;2023-07-29T11:39:46;98691.16;;;18.26;100.00
41202;BME280;26936;50.524;8.684;2023-07-29T11:42:12;98700.00;;;18.22;100.00
41202;BME280;26936;50.524;8.684;2023-07-29T11:44:38;98706.47;;;18.39;100.00
41202;BME280;26936;50.524;8.684;2023-07-29T11:47:11;98690.13;;;18.34;100.00
41202;BME280;26936;50.524;8.684;2023-07-29T11:49:37;98694.53;;;18.46;100.00
41202;BME280;26936;50.524;8.684;2023-07-29T11:52:03;98696.03;;;18.58;100.00
41202;BME280;26936;50.524;8.684;2023-07-29T11:54:30;98696.47;;;18.79;100.00
41202;BME280;26936;50.524;8.684;2023-07-29T11:56:56;98681.56;;;19.03;100.00
41202;BME280;26936;50.524;8.684;2023-07-29T11:59:21;98679.59;;;19.27;100.00
41202;BME280;26936;50.524;8.684;2023-07-29T12:01:47;98678.09;;;19.61;100.00
41202;BME280;26936;50.524;8.684;2023-07-29T12:04:13;98670.22;;;19.97;100.00
41202;BME280;26936;50.524;8.684;2023-07-29T12:06:39;98665.59;;;20.23;100.00
41202;BME280;26936;50.524;8.684;2023-07-29T12:09:04;98667.88;;;20.49;100.00
41202;BME280;26936;50.524;8.684;2023-07-29T12:11:30;98662.75;;;20.66;100.00
41202;BME280;26936;50.524;8.684;2023-07-29T12:13:57;98657.91;;;20.80;100.00
41202;BME280;26936;50.524;8.684;2023-07-29T12:16:22;98651.94;;;20.78;100.00
41202;BME280;26936;50.524;8.684;2023-07-29T12:18:50;98658.16;;;21.00;99.06
41202;BME280;26936;50.524;8.684;2023-07-29T12:21:15;98636.97;;;21.27;97.82
41202;BME280;26936;50.524;8.684;2023-07-29T12:23:42;98651.66;;;21.37;96.63
41202;BME280;26936;50.524;8.684;2023-07-29T12:26:08;98638.13;;;21.50;94.01
41202;BME280;26936;50.524;8.684;2023-07-29T12:28:33;98660.13;;;21.80;94.88
41202;BME280;26936;50.524;8.684;2023-07-29T12:30:58;98661.19;;;21.77;90.34
41202;BME280;26936;50.524;8.684;2023-07-29T12:33:35;98656.94;;;21.96;86.94
41202;BME280;26936;50.524;8.684;2023-07-29T12:36:02;98660.38;;;22.08;85.96
41202;BME280;26936;50.524;8.684;2023-07-29T12:38:29;98655.34;;;22.27;87.43
41202;BME280;26936;50.524;8.684;2023-07-29T12:40:54;98654.13;;;22.35;86.44
41202;BME280;26936;50.524;8.684;2023-07-29T12:43:20;98648.59;;;22.50;86.30
41202;BME280;26936;50.524;8.684;2023-07-29T12:45:45;98644.31;;;22.70;86.29
41202;BME280;26936;50.524;8.684;2023-07-29T12:48:11;98651.44;;;23.03;84.47
41202;BME280;26936;50.524;8.684;2023-07-29T12:50:37;98663.56;;;23.09;84.07
41202;BME280;26936;50.524;8.684;2023-07-29T12:53:02;98648.31;;;23.27;81.79
41202;BME280;26936;50.524;8.684;2023-07-29T12:55:27;98644.53;;;23.65;83.25
41202;BME280;26936;50.524;8.684;2023-07-29T12:57:53;98645.84;;;23.64;79.74
41202;BME280;26936;50.524;8.684;2023-07-29T13:00:18;98646.63;;;23.65;79.70
41202;BME280;26936;50.524;8.684;2023-07-29T13:02:43;98648.06;;;23.38;80.13
41202;BME280;26936;50.524;8.684;2023-07-29T13:05:12;98644.72;;;23.67;79.89
41202;BME280;26936;50.524;8.684;2023-07-29T13:07:39;98634.72;;;24.02;77.37
41202;BME280;26936;50.524;8.684;2023-07-29T13:10:04;98639.78;;;24.37;77.50
41202;BME280;26936;50.524;8.684;2023-07-29T13:12:30;98645.69;;;24.32;75.79